sensor_id;sensor_type;location;lat;lon;timestamp;P1;durP1;ratioP1;P2;durP2;ratioP2
18194;SDS011;9223;50.988;3.162;2023-04-21T00:04:44;18.77;;;12.25;;
18194;SDS011;9223;50.988;3.162;2023-04-21T00:10:51;18.98;;;12.05;;
18194;SDS011;9223;50.988;3.162;2023-04-21T00:16:55;20.85;;;13.57;;
18194;SDS011;9223;50.988;3.162;2023-04-21T00:23:00;19.20;;;13.15;;
18194;SDS011;9223;50.988;3.162;2023-04-21T00:29:05;20.08;;;13.43;;
18194;SDS011;9223;50.988;3.162;2023-04-21T00:35:09;24.20;;;13.88;;
18194;SDS011;9223;50.988;3.162;2023-04-21T00:41:13;19.42;;;13.65;;
18194;SDS011;9223;50.988;3.162;2023-04-21T00:47:18;19.13;;;12.88;;
18194;SDS011;9223;50.988;3.162;2023-04-21T00:53:22;20.63;;;13.77;;
18194;SDS011;9223;50.988;3.162;2023-04-21T00:59:26;23.27;;;14.00;;
18194;SDS011;9223;50.988;3.162;2023-04-21T01:05:31;19.90;;;12.88;;
18194;SDS011;9223;50.988;3.162;2023-04-21T01:11:34;19.55;;;13.70;;
18194;SDS011;9223;50.988;3.162;2023-04-21T01:17:39;20.38;;;13.95;;
18194;SDS011;9223;50.988;3.162;2023-04-21T01:23:44;17.33;;;12.35;;
18194;SDS011;9223;50.988;3.162;2023-04-21T01:29:49;17.13;;;12.80;;
18194;SDS011;9223;50.988;3.162;2023-04-21T01:35:53;15.80;;;12.30;;
18194;SDS011;9223;50.988;3.162;2023-04-21T01:41:58;16.13;;;12.15;;
18194;SDS011;9223;50.988;3.162;2023-04-21T01:48:02;14.90;;;11.80;;
18194;SDS011;9223;50.988;3.162;2023-04-21T01:54:06;15.80;;;12.43;;
18194;SDS011;9223;50.988;3.162;2023-04-21T02:00:11;16.77;;;12.57;;
18194;SDS011;9223;50.988;3.162;2023-04-21T02:06:15;17.38;;;12.75;;
18194;SDS011;9223;50.988;3.162;2023-04-21T02:12:19;17.13;;;12.50;;
18194;SDS011;9223;50.988;3.162;2023-04-21T02:18:24;17.67;;;13.15;;
18194;SDS011;9223;50.988;3.162;2023-04-21T02:24:30;18.30;;;13.18;;
18194;SDS011;9223;50.988;3.162;2023-04-21T02:30:33;19.10;;;12.95;;
18194;SDS011;9223;50.988;3.162;2023-04-21T02:36:38;18.73;;;13.05;;
18194;SDS011;9223;50.988;3.162;2023-04-21T02:42:41;16.58;;;12.70;;
18194;SDS011;9223;50.988;3.162;2023-04-21T02:48:45;18.02;;;12.60;;
18194;SDS011;9223;50.988;3.162;2023-04-21T02:54:50;17.42;;;12.75;;
18194;SDS011;9223;50.988;3.162;2023-04-21T03:00:53;16.48;;;12.63;;
18194;SDS011;9223;50.988;3.162;2023-04-21T03:06:57;16.67;;;12.45;;
18194;SDS011;9223;50.988;3.162;2023-04-21T03:13:02;19.20;;;13.85;;
18194;SDS011;9223;50.988;3.162;2023-04-21T03:19:06;19.05;;;13.68;;
18194;SDS011;9223;50.988;3.162;2023-04-21T03:25:11;19.77;;;14.18;;
18194;SDS011;9223;50.988;3.162;2023-04-21T03:31:16;20.60;;;14.57;;
18194;SDS011;9223;50.988;3.162;2023-04-21T03:37:19;19.35;;;14.43;;
18194;SDS011;9223;50.988;3.162;2023-04-21T03:43:23;19.85;;;14.27;;
18194;SDS011;9223;50.988;3.162;2023-04-21T03:49:28;21.10;;;15.75;;
18194;SDS011;9223;50.988;3.162;2023-04-21T03:55:32;19.85;;;14.60;;
18194;SDS011;9223;50.988;3.162;2023-04-21T04:01:35;23.10;;;16.50;;
18194;SDS011;9223;50.988;3.162;2023-04-21T04:07:40;20.95;;;16.02;;
18194;SDS011;9223;50.988;3.162;2023-04-21T04:13:43;23.60;;;16.33;;
18194;SDS011;9223;50.988;3.162;2023-04-21T04:19:47;23.63;;;16.50;;
18194;SDS011;9223;50.988;3.162;2023-04-21T04:25:52;24.35;;;17.38;;
18194;SDS011;9223;50.988;3.162;2023-04-21T04:31:56;26.08;;;18.02;;
18194;SDS011;9223;50.988;3.162;2023-04-21T04:38:02;24.77;;;17.55;;
18194;SDS011;9223;50.988;3.162;2023-04-21T04:44:07;27.08;;;18.15;;
18194;SDS011;9223;50.988;3.162;2023-04-21T04:50:11;30.27;;;18.75;;
18194;SDS011;9223;50.988;3.162;2023-04-21T04:56:15;28.05;;;18.73;;
18194;SDS011;9223;50.988;3.162;2023-04-21T05:02:19;29.95;;;19.55;;
18194;SDS011;9223;50.988;3.162;2023-04-21T05:08:25;31.58;;;18.95;;
18194;SDS011;9223;50.988;3.162;2023-04-21T05:14:28;28.65;;;18.90;;
18194;SDS011;9223;50.988;3.162;2023-04-21T05:20:33;30.75;;;19.98;;
18194;SDS011;9223;50.988;3.162;2023-04-21T05:26:37;32.72;;;20.45;;
18194;SDS011;9223;50.988;3.162;2023-04-21T05:32:40;32.67;;;21.05;;
18194;SDS011;9223;50.988;3.162;2023-04-21T05:38:45;30.55;;;20.98;;
18194;SDS011;9223;50.988;3.162;2023-04-21T05:44:49;40.92;;;21.73;;
18194;SDS011;9223;50.988;3.162;2023-04-21T05:50:52;35.22;;;21.50;;
18194;SDS011;9223;50.988;3.162;2023-04-21T05:56:58;32.17;;;22.23;;
18194;SDS011;9223;50.988;3.162;2023-04-21T06:03:01;35.17;;;23.10;;
18194;SDS011;9223;50.988;3.162;2023-04-21T06:09:05;34.70;;;21.90;;
18194;SDS011;9223;50.988;3.162;2023-04-21T06:15:10;33.55;;;22.60;;
18194;SDS011;9223;50.988;3.162;2023-04-21T06:21:14;37.00;;;22.25;;
18194;SDS011;9223;50.988;3.162;2023-04-21T06:27:17;31.98;;;20.90;;
18194;SDS011;9223;50.988;3.162;2023-04-21T06:33:22;34.88;;;22.33;;
18194;SDS011;9223;50.988;3.162;2023-04-21T06:39:27;33.63;;;21.77;;
18194;SDS011;9223;50.988;3.162;2023-04-21T06:45:30;32.65;;;21.55;;
18194;SDS011;9223;50.988;3.162;2023-04-21T06:51:35;34.28;;;22.25;;
18194;SDS011;9223;50.988;3.162;2023-04-21T06:57:39;37.95;;;22.85;;
18194;SDS011;9223;50.988;3.162;2023-04-21T07:03:42;40.08;;;22.90;;
18194;SDS011;9223;50.988;3.162;2023-04-21T07:09:47;31.27;;;21.20;;
18194;SDS011;9223;50.988;3.162;2023-04-21T07:15:51;34.70;;;21.75;;
18194;SDS011;9223;50.988;3.162;2023-04-21T07:21:54;38.17;;;23.25;;
18194;SDS011;9223;50.988;3.162;2023-04-21T07:27:59;34.80;;;22.00;;
18194;SDS011;9223;50.988;3.162;2023-04-21T07:34:03;31.90;;;20.75;;
18194;SDS011;9223;50.988;3.162;2023-04-21T07:40:07;32.05;;;20.13;;
18194;SDS011;9223;50.988;3.162;2023-04-21T07:46:13;31.15;;;19.88;;
18194;SDS011;9223;50.988;3.162;2023-04-21T07:52:16;30.27;;;19.85;;
18194;SDS011;9223;50.988;3.162;2023-04-21T07:58:20;29.73;;;19.27;;
18194;SDS011;9223;50.988;3.162;2023-04-21T08:04:25;29.35;;;20.50;;
18194;SDS011;9223;50.988;3.162;2023-04-21T08:10:29;25.58;;;18.15;;
18194;SDS011;9223;50.988;3.162;2023-04-21T08:16:33;27.15;;;18.67;;
18194;SDS011;9223;50.988;3.162;2023-04-21T08:22:38;25.75;;;17.23;;
18194;SDS011;9223;50.988;3.162;2023-04-21T08:28:42;26.33;;;17.63;;
18194;SDS011;9223;50.988;3.162;2023-04-21T08:34:46;24.30;;;16.67;;
18194;SDS011;9223;50.988;3.162;2023-04-21T08:40:50;22.15;;;16.17;;
18194;SDS011;9223;50.988;3.162;2023-04-21T08:46:54;23.50;;;17.50;;
18194;SDS011;9223;50.988;3.162;2023-04-21T08:52:57;23.20;;;16.85;;
18194;SDS011;9223;50.988;3.162;2023-04-21T08:59:02;19.35;;;14.15;;
18194;SDS011;9223;50.988;3.162;2023-04-21T09:05:06;17.08;;;12.80;;
18194;SDS011;9223;50.988;3.162;2023-04-21T09:11:12;12.88;;;8.95;;
18194;SDS011;9223;50.988;3.162;2023-04-21T09:17:19;15.95;;;11.00;;
18194;SDS011;9223;50.988;3.162;2023-04-21T09:23:23;14.50;;;10.73;;
18194;SDS011;9223;50.988;3.162;2023-04-21T09:29:26;13.70;;;10.18;;
18194;SDS011;9223;50.988;3.162;2023-04-21T09:35:33;12.75;;;9.43;;
18194;SDS011;9223;50.988;3.162;2023-04-21T09:41:36;11.77;;;9.65;;
18194;SDS011;9223;50.988;3.162;2023-04-21T09:47:40;11.85;;;9.73;;
18194;SDS011;9223;50.988;3.162;2023-04-21T09:53:46;12.00;;;9.70;;
18194;SDS011;9223;50.988;3.162;2023-04-21T09:59:53;14.38;;;11.05;;
18194;SDS011;9223;50.988;3.162;2023-04-21T10:05:57;14.88;;;11.30;;
18194;SDS011;9223;50.988;3.162;2023-04-21T10:12:05;15.82;;;11.77;;
18194;SDS011;9223;50.988;3.162;2023-04-21T10:18:10;16.05;;;12.07;;
18194;SDS011;9223;50.988;3.162;2023-04-21T10:24:14;17.63;;;12.75;;
18194;SDS011;9223;50.988;3.162;2023-04-21T10:30:20;16.98;;;12.90;;
18194;SDS011;9223;50.988;3.162;2023-04-21T10:36:24;18.60;;;12.32;;
18194;SDS011;9223;50.988;3.162;2023-04-21T10:42:28;16.38;;;12.73;;
18194;SDS011;9223;50.988;3.162;2023-04-21T10:48:36;15.18;;;12.00;;
18194;SDS011;9223;50.988;3.162;2023-04-21T10:54:41;14.88;;;11.20;;
18194;SDS011;9223;50.988;3.162;2023-04-21T11:00:46;16.25;;;10.07;;
18194;SDS011;9223;50.988;3.162;2023-04-21T11:07:05;13.30;;;10.88;;
18194;SDS011;9223;50.988;3.162;2023-04-21T11:13:09;11.77;;;10.18;;
18194;SDS011;9223;50.988;3.162;2023-04-21T11:19:13;13.10;;;10.13;;
18194;SDS011;9223;50.988;3.162;2023-04-21T11:25:19;12.93;;;10.25;;
18194;SDS011;9223;50.988;3.162;2023-04-21T11:31:22;12.68;;;10.68;;
18194;SDS011;9223;50.988;3.162;2023-04-21T11:37:30;13.02;;;10.45;;
18194;SDS011;9223;50.988;3.162;2023-04-21T11:43:35;13.73;;;11.05;;
18194;SDS011;9223;50.988;3.162;2023-04-21T11:49:42;13.93;;;10.90;;
18194;SDS011;9223;50.988;3.162;2023-04-21T11:55:46;14.23;;;11.05;;
18194;SDS011;9223;50.988;3.162;2023-04-21T12:01:51;12.45;;;10.30;;
18194;SDS011;9223;50.988;3.162;2023-04-21T12:07:55;13.45;;;11.20;;
18194;SDS011;9223;50.988;3.162;2023-04-21T12:13:59;11.90;;;10.02;;
18194;SDS011;9223;50.988;3.162;2023-04-21T12:20:04;12.20;;;10.02;;
18194;SDS011;9223;50.988;3.162;2023-04-21T12:26:08;12.23;;;10.15;;
18194;SDS011;9223;50.988;3.162;2023-04-21T12:32:12;13.48;;;11.60;;
18194;SDS011;9223;50.988;3.162;2023-04-21T12:38:16;10.77;;;9.50;;
18194;SDS011;9223;50.988;3.162;2023-04-21T12:44:20;13.93;;;8.80;;
18194;SDS011;9223;50.988;3.162;2023-04-21T12:50:23;11.50;;;8.93;;
18194;SDS011;9223;50.988;3.162;2023-04-21T12:56:28;9.68;;;8.52;;
18194;SDS011;9223;50.988;3.162;2023-04-21T13:02:32;12.57;;;8.88;;
18194;SDS011;9223;50.988;3.162;2023-04-21T13:08:37;10.32;;;7.78;;
18194;SDS011;9223;50.988;3.162;2023-04-21T13:14:43;8.60;;;7.57;;
18194;SDS011;9223;50.988;3.162;2023-04-21T13:20:46;9.55;;;7.82;;
18194;SDS011;9223;50.988;3.162;2023-04-21T13:26:50;8.75;;;7.30;;
18194;SDS011;9223;50.988;3.162;2023-04-21T13:32:54;8.48;;;6.60;;
18194;SDS011;9223;50.988;3.162;2023-04-21T13:38:58;10.70;;;7.60;;
18194;SDS011;9223;50.988;3.162;2023-04-21T13:45:02;9.75;;;7.38;;
18194;SDS011;9223;50.988;3.162;2023-04-21T13:51:07;8.68;;;7.10;;
18194;SDS011;9223;50.988;3.162;2023-04-21T13:57:11;8.18;;;6.60;;
18194;SDS011;9223;50.988;3.162;2023-04-21T14:03:14;7.75;;;6.93;;
18194;SDS011;9223;50.988;3.162;2023-04-21T14:09:19;8.65;;;6.70;;
18194;SDS011;9223;50.988;3.162;2023-04-21T14:15:24;8.20;;;6.90;;
18194;SDS011;9223;50.988;3.162;2023-04-21T14:21:27;8.13;;;6.78;;
18194;SDS011;9223;50.988;3.162;2023-04-21T14:27:32;8.80;;;6.63;;
18194;SDS011;9223;50.988;3.162;2023-04-21T14:33:36;7.60;;;6.05;;
18194;SDS011;9223;50.988;3.162;2023-04-21T14:39:39;7.68;;;6.40;;
18194;SDS011;9223;50.988;3.162;2023-04-21T14:45:44;9.95;;;7.15;;
18194;SDS011;9223;50.988;3.162;2023-04-21T14:51:48;9.90;;;7.03;;
18194;SDS011;9223;50.988;3.162;2023-04-21T14:57:52;12.05;;;7.82;;
18194;SDS011;9223;50.988;3.162;2023-04-21T15:03:57;9.95;;;8.63;;
18194;SDS011;9223;50.988;3.162;2023-04-21T15:10:01;9.20;;;7.57;;
18194;SDS011;9223;50.988;3.162;2023-04-21T15:16:05;7.25;;;6.30;;
18194;SDS011;9223;50.988;3.162;2023-04-21T15:22:10;7.82;;;6.70;;
18194;SDS011;9223;50.988;3.162;2023-04-21T15:28:15;4.50;;;3.30;;
18194;SDS011;9223;50.988;3.162;2023-04-21T15:34:19;6.50;;;5.20;;
18194;SDS011;9223;50.988;3.162;2023-04-21T15:40:24;5.68;;;4.65;;
18194;SDS011;9223;50.988;3.162;2023-04-21T15:46:27;8.02;;;6.43;;
18194;SDS011;9223;50.988;3.162;2023-04-21T15:52:31;5.35;;;4.75;;
18194;SDS011;9223;50.988;3.162;2023-04-21T15:58:39;4.53;;;3.70;;
18194;SDS011;9223;50.988;3.162;2023-04-21T16:04:42;4.78;;;3.30;;
18194;SDS011;9223;50.988;3.162;2023-04-21T16:10:47;4.25;;;3.28;;
18194;SDS011;9223;50.988;3.162;2023-04-21T16:16:52;3.08;;;2.67;;
18194;SDS011;9223;50.988;3.162;2023-04-21T16:22:56;4.07;;;3.03;;
18194;SDS011;9223;50.988;3.162;2023-04-21T16:29:00;4.63;;;3.20;;
18194;SDS011;9223;50.988;3.162;2023-04-21T16:35:05;3.90;;;3.10;;
18194;SDS011;9223;50.988;3.162;2023-04-21T16:41:09;3.75;;;3.08;;
18194;SDS011;9223;50.988;3.162;2023-04-21T16:47:13;3.60;;;3.22;;
18194;SDS011;9223;50.988;3.162;2023-04-21T16:53:20;4.50;;;3.53;;
18194;SDS011;9223;50.988;3.162;2023-04-21T16:59:25;3.78;;;3.35;;
18194;SDS011;9223;50.988;3.162;2023-04-21T17:05:31;6.70;;;4.40;;
18194;SDS011;9223;50.988;3.162;2023-04-21T17:11:35;4.32;;;3.63;;
18194;SDS011;9223;50.988;3.162;2023-04-21T17:17:41;6.82;;;5.32;;
18194;SDS011;9223;50.988;3.162;2023-04-21T17:23:45;6.63;;;4.47;;
18194;SDS011;9223;50.988;3.162;2023-04-21T17:29:50;6.40;;;4.90;;
18194;SDS011;9223;50.988;3.162;2023-04-21T17:35:54;5.97;;;4.53;;
18194;SDS011;9223;50.988;3.162;2023-04-21T17:42:02;6.75;;;4.95;;
18194;SDS011;9223;50.988;3.162;2023-04-21T17:48:07;5.35;;;4.30;;
18194;SDS011;9223;50.988;3.162;2023-04-21T17:54:11;5.13;;;4.20;;
18194;SDS011;9223;50.988;3.162;2023-04-21T18:00:14;5.55;;;4.28;;
18194;SDS011;9223;50.988;3.162;2023-04-21T18:06:19;5.22;;;4.70;;
18194;SDS011;9223;50.988;3.162;2023-04-21T18:12:23;5.07;;;4.57;;
18194;SDS011;9223;50.988;3.162;2023-04-21T18:18:27;5.05;;;4.20;;
18194;SDS011;9223;50.988;3.162;2023-04-21T18:24:32;6.65;;;4.50;;
18194;SDS011;9223;50.988;3.162;2023-04-21T18:30:35;5.15;;;4.10;;
18194;SDS011;9223;50.988;3.162;2023-04-21T18:36:39;3.83;;;3.40;;
18194;SDS011;9223;50.988;3.162;2023-04-21T18:42:45;4.07;;;3.50;;
18194;SDS011;9223;50.988;3.162;2023-04-21T18:48:48;4.30;;;3.90;;
18194;SDS011;9223;50.988;3.162;2023-04-21T18:54:53;4.70;;;4.10;;
18194;SDS011;9223;50.988;3.162;2023-04-21T19:00:58;6.85;;;4.32;;
18194;SDS011;9223;50.988;3.162;2023-04-21T19:07:01;4.18;;;3.70;;
18194;SDS011;9223;50.988;3.162;2023-04-21T19:13:08;4.40;;;3.97;;
18194;SDS011;9223;50.988;3.162;2023-04-21T19:19:13;5.38;;;4.38;;
18194;SDS011;9223;50.988;3.162;2023-04-21T19:25:17;5.72;;;4.68;;
18194;SDS011;9223;50.988;3.162;2023-04-21T19:31:20;5.93;;;4.85;;
18194;SDS011;9223;50.988;3.162;2023-04-21T19:37:26;6.20;;;5.07;;
18194;SDS011;9223;50.988;3.162;2023-04-21T19:43:29;6.25;;;4.43;;
18194;SDS011;9223;50.988;3.162;2023-04-21T19:49:33;5.18;;;4.47;;
18194;SDS011;9223;50.988;3.162;2023-04-21T19:55:38;7.32;;;4.55;;
18194;SDS011;9223;50.988;3.162;2023-04-21T20:01:41;5.40;;;4.90;;
18194;SDS011;9223;50.988;3.162;2023-04-21T20:07:45;5.63;;;4.97;;
18194;SDS011;9223;50.988;3.162;2023-04-21T20:13:50;5.57;;;4.93;;
18194;SDS011;9223;50.988;3.162;2023-04-21T20:19:54;5.70;;;5.10;;
18194;SDS011;9223;50.988;3.162;2023-04-21T20:25:59;8.93;;;5.53;;
18194;SDS011;9223;50.988;3.162;2023-04-21T20:32:04;6.80;;;5.45;;
18194;SDS011;9223;50.988;3.162;2023-04-21T20:38:08;8.63;;;5.70;;
18194;SDS011;9223;50.988;3.162;2023-04-21T20:44:11;7.68;;;5.97;;
18194;SDS011;9223;50.988;3.162;2023-04-21T20:50:16;8.30;;;5.95;;
18194;SDS011;9223;50.988;3.162;2023-04-21T20:56:20;9.45;;;5.82;;
18194;SDS011;9223;50.988;3.162;2023-04-21T21:02:24;7.47;;;6.28;;
18194;SDS011;9223;50.988;3.162;2023-04-21T21:08:29;9.60;;;7.20;;
18194;SDS011;9223;50.988;3.162;2023-04-21T21:14:33;9.63;;;6.22;;
18194;SDS011;9223;50.988;3.162;2023-04-21T21:20:36;8.25;;;6.63;;
18194;SDS011;9223;50.988;3.162;2023-04-21T21:26:41;10.93;;;7.70;;
18194;SDS011;9223;50.988;3.162;2023-04-21T21:32:44;11.38;;;7.47;;
18194;SDS011;9223;50.988;3.162;2023-04-21T21:38:48;10.98;;;8.30;;
18194;SDS011;9223;50.988;3.162;2023-04-21T21:44:53;10.10;;;6.85;;
18194;SDS011;9223;50.988;3.162;2023-04-21T21:50:56;13.10;;;8.05;;
18194;SDS011;9223;50.988;3.162;2023-04-21T21:57:00;6.90;;;5.35;;
18194;SDS011;9223;50.988;3.162;2023-04-21T22:03:04;9.98;;;5.75;;
18194;SDS011;9223;50.988;3.162;2023-04-21T22:09:08;10.40;;;7.30;;
18194;SDS011;9223;50.988;3.162;2023-04-21T22:15:12;9.38;;;7.72;;
18194;SDS011;9223;50.988;3.162;2023-04-21T22:21:17;9.38;;;6.90;;
18194;SDS011;9223;50.988;3.162;2023-04-21T22:27:21;13.02;;;6.97;;
18194;SDS011;9223;50.988;3.162;2023-04-21T22:33:25;7.38;;;5.03;;
18194;SDS011;9223;50.988;3.162;2023-04-21T22:39:30;7.38;;;5.70;;
18194;SDS011;9223;50.988;3.162;2023-04-21T22:45:33;9.75;;;6.20;;
18194;SDS011;9223;50.988;3.162;2023-04-21T22:51:37;9.48;;;6.78;;
18194;SDS011;9223;50.988;3.162;2023-04-21T22:57:42;9.07;;;6.25;;
18194;SDS011;9223;50.988;3.162;2023-04-21T23:03:45;5.25;;;4.10;;
18194;SDS011;9223;50.988;3.162;2023-04-21T23:09:49;5.00;;;4.50;;
18194;SDS011;9223;50.988;3.162;2023-04-21T23:15:54;6.78;;;5.57;;
18194;SDS011;9223;50.988;3.162;2023-04-21T23:21:57;10.75;;;7.07;;
18194;SDS011;9223;50.988;3.162;2023-04-21T23:28:01;8.55;;;6.10;;
18194;SDS011;9223;50.988;3.162;2023-04-21T23:34:06;9.90;;;6.90;;
18194;SDS011;9223;50.988;3.162;2023-04-21T23:40:09;11.25;;;8.00;;
18194;SDS011;9223;50.988;3.162;2023-04-21T23:46:13;13.50;;;8.93;;
18194;SDS011;9223;50.988;3.162;2023-04-21T23:52:18;13.40;;;9.45;;
18194;SDS011;9223;50.988;3.162;2023-04-21T23:58:22;15.60;;;10.80;;
